sensor_id;sensor_type;location;lat;lon;timestamp;pressure;altitude;pressure_sealevel;temperature;humidity
40205;BME280;26963;42.666;23.366;2023-07-31T00:00:27;94603.59;;;25.70;45.80
40205;BME280;26963;42.666;23.366;2023-07-31T00:02:54;94561.84;;;25.44;45.94
40205;BME280;26963;42.666;23.366;2023-07-31T00:05:20;94606.38;;;25.63;46.15
40205;BME280;26963;42.666;23.366;2023-07-31T00:07:45;94589.56;;;25.53;45.78
40205;BME280;26963;42.666;23.366;2023-07-31T00:10:11;94595.06;;;25.53;46.09
40205;BME280;26963;42.666;23.366;2023-07-31T00:12:38;94613.81;;;25.62;46.37
40205;BME280;26963;42.666;23.366;2023-07-31T00:15:04;94590.41;;;25.43;46.37
40205;BME280;26963;42.666;23.366;2023-07-31T00:17:30;94625.56;;;25.63;46.61
40205;BME280;26963;42.666;23.366;2023-07-31T00:19:55;94615.78;;;25.62;46.30
40205;BME280;26963;42.666;23.366;2023-07-31T00:22:21;94572.44;;;25.24;46.61
40205;BME280;26963;42.666;23.366;2023-07-31T00:24:47;94591.16;;;25.47;46.61
40205;BME280;26963;42.666;23.366;2023-07-31T00:27:13;94598.19;;;25.55;46.57
40205;BME280;26963;42.666;23.366;2023-07-31T00:29:38;94604.47;;;25.45;46.56
40205;BME280;26963;42.666;23.366;2023-07-31T00:32:04;94602.13;;;25.47;46.71
40205;BME280;26963;42.666;23.366;2023-07-31T00:34:30;94575.53;;;25.44;46.88
40205;BME280;26963;42.666;23.366;2023-07-31T00:36:55;94591.16;;;25.51;47.20
40205;BME280;26963;42.666;23.366;2023-07-31T00:39:21;94547.44;;;25.18;47.48
40205;BME280;26963;42.666;23.366;2023-07-31T00:41:46;94567.72;;;25.32;47.93
40205;BME280;26963;42.666;23.366;2023-07-31T00:44:12;94573.19;;;25.32;48.13
40205;BME280;26963;42.666;23.366;2023-07-31T00:46:37;94571.66;;;25.27;48.14
40205;BME280;26963;42.666;23.366;2023-07-31T00:49:03;94529.88;;;24.98;48.63
40205;BME280;26963;42.666;23.366;2023-07-31T00:51:30;94542.00;;;25.04;48.57
40205;BME280;26963;42.666;23.366;2023-07-31T00:53:55;94520.91;;;24.86;48.46
40205;BME280;26963;42.666;23.366;2023-07-31T00:56:22;94604.50;;;25.38;48.85
40205;BME280;26963;42.666;23.366;2023-07-31T00:58:48;94607.63;;;25.40;49.11
40205;BME280;26963;42.666;23.366;2023-07-31T01:01:14;94594.72;;;25.37;49.13
40205;BME280;26963;42.666;23.366;2023-07-31T01:03:39;94570.88;;;25.19;49.24
40205;BME280;26963;42.666;23.366;2023-07-31T01:06:19;94564.66;;;25.12;49.84
40205;BME280;26963;42.666;23.366;2023-07-31T01:08:51;94580.66;;;25.24;49.81
40205;BME280;26963;42.666;23.366;2023-07-31T01:11:25;94582.63;;;25.16;50.28
40205;BME280;26963;42.666;23.366;2023-07-31T01:13:53;94544.78;;;24.86;50.35
40205;BME280;26963;42.666;23.366;2023-07-31T01:16:19;94572.50;;;25.06;50.49
40205;BME280;26963;42.666;23.366;2023-07-31T01:18:45;94579.53;;;25.07;50.52
40205;BME280;26963;42.666;23.366;2023-07-31T01:21:41;94406.16;;;23.89;50.68
40205;BME280;26963;42.666;23.366;2023-07-31T01:26:57;94550.66;;;24.84;50.92
40205;BME280;26963;42.666;23.366;2023-07-31T01:29:32;94556.06;;;24.99;50.98
40205;BME280;26963;42.666;23.366;2023-07-31T01:32:02;94517.06;;;24.66;51.23
40205;BME280;26963;42.666;23.366;2023-07-31T01:34:29;94560.03;;;24.87;51.29
40205;BME280;26963;42.666;23.366;2023-07-31T01:36:56;94556.88;;;24.81;51.50
40205;BME280;26963;42.666;23.366;2023-07-31T01:39:23;94565.91;;;24.85;51.37
40205;BME280;26963;42.666;23.366;2023-07-31T01:41:49;94555.34;;;24.77;51.60
40205;BME280;26963;42.666;23.366;2023-07-31T01:44:14;94525.25;;;24.51;51.92
40205;BME280;26963;42.666;23.366;2023-07-31T01:46:40;94535.00;;;24.52;52.14
40205;BME280;26963;42.666;23.366;2023-07-31T01:49:06;94509.25;;;24.35;52.31
40205;BME280;26963;42.666;23.366;2023-07-31T01:51:31;94557.66;;;24.64;52.69
40205;BME280;26963;42.666;23.366;2023-07-31T01:54:00;94552.59;;;24.55;52.88
40205;BME280;26963;42.666;23.366;2023-07-31T01:56:25;94556.50;;;24.50;53.18
40205;BME280;26963;42.666;23.366;2023-07-31T01:58:51;94562.75;;;24.51;53.34
40205;BME280;26963;42.666;23.366;2023-07-31T02:01:16;94556.09;;;24.41;53.59
40205;BME280;26963;42.666;23.366;2023-07-31T02:03:42;94567.84;;;24.45;53.48
40205;BME280;26963;42.666;23.366;2023-07-31T02:06:08;94399.88;;;23.34;53.44
40205;BME280;26963;42.666;23.366;2023-07-31T02:08:33;94544.00;;;24.24;54.26
40205;BME280;26963;42.666;23.366;2023-07-31T02:10:59;94574.47;;;24.37;54.30
40205;BME280;26963;42.666;23.366;2023-07-31T02:13:24;94565.50;;;24.33;54.07
40205;BME280;26963;42.666;23.366;2023-07-31T02:15:50;94560.00;;;24.25;54.39
40205;BME280;26963;42.666;23.366;2023-07-31T02:18:16;94578.00;;;24.34;54.46
40205;BME280;26963;42.666;23.366;2023-07-31T02:20:41;94578.78;;;24.38;54.57
40205;BME280;26963;42.666;23.366;2023-07-31T02:23:08;94546.75;;;24.13;54.34
40205;BME280;26963;42.666;23.366;2023-07-31T02:25:34;94570.94;;;24.25;54.72
40205;BME280;26963;42.666;23.366;2023-07-31T02:27:59;94569.00;;;24.22;54.78
40205;BME280;26963;42.666;23.366;2023-07-31T02:30:25;94574.84;;;24.24;54.80
40205;BME280;26963;42.666;23.366;2023-07-31T02:32:50;94575.66;;;24.29;54.97
40205;BME280;26963;42.666;23.366;2023-07-31T02:35:16;94579.53;;;24.38;54.58
40205;BME280;26963;42.666;23.366;2023-07-31T02:37:42;94564.72;;;24.29;54.82
40205;BME280;26963;42.666;23.366;2023-07-31T02:40:08;94567.06;;;24.30;54.86
40205;BME280;26963;42.666;23.366;2023-07-31T02:42:33;94574.84;;;24.32;55.04
40205;BME280;26963;42.666;23.366;2023-07-31T02:44:59;94571.34;;;24.38;55.01
40205;BME280;26963;42.666;23.366;2023-07-31T02:47:24;94563.94;;;24.35;54.61
40205;BME280;26963;42.666;23.366;2023-07-31T02:49:50;94577.19;;;24.37;55.06
40205;BME280;26963;42.666;23.366;2023-07-31T02:52:15;94527.97;;;24.08;54.71
40205;BME280;26963;42.666;23.366;2023-07-31T02:54:41;94592.44;;;24.45;55.00
40205;BME280;26963;42.666;23.366;2023-07-31T02:57:07;94592.06;;;24.50;54.78
40205;BME280;26963;42.666;23.366;2023-07-31T02:59:32;94588.94;;;24.48;54.57
40205;BME280;26963;42.666;23.366;2023-07-31T03:01:58;94598.31;;;24.51;54.55
40205;BME280;26963;42.666;23.366;2023-07-31T03:04:23;94555.34;;;24.26;54.30
40205;BME280;26963;42.666;23.366;2023-07-31T03:06:49;94599.88;;;24.55;54.44
40205;BME280;26963;42.666;23.366;2023-07-31T03:09:14;94573.31;;;24.38;54.21
40205;BME280;26963;42.666;23.366;2023-07-31T03:11:40;94574.06;;;24.38;54.23
40205;BME280;26963;42.666;23.366;2023-07-31T03:14:05;94605.34;;;24.63;53.99
40205;BME280;26963;42.666;23.366;2023-07-31T03:16:31;94602.22;;;24.61;54.06
40205;BME280;26963;42.666;23.366;2023-07-31T03:18:56;94607.69;;;24.61;54.11
40205;BME280;26963;42.666;23.366;2023-07-31T03:21:22;94613.97;;;24.65;54.34
40205;BME280;26963;42.666;23.366;2023-07-31T03:23:48;94597.13;;;24.52;54.06
40205;BME280;26963;42.666;23.366;2023-07-31T03:26:14;94522.16;;;24.09;53.95
40205;BME280;26963;42.666;23.366;2023-07-31T03:28:39;94617.88;;;24.67;53.80
40205;BME280;26963;42.666;23.366;2023-07-31T03:31:05;94610.06;;;24.66;53.77
40205;BME280;26963;42.666;23.366;2023-07-31T03:33:30;94613.19;;;24.68;54.07
40205;BME280;26963;42.666;23.366;2023-07-31T03:35:56;94585.03;;;24.49;53.90
40205;BME280;26963;42.666;23.366;2023-07-31T03:38:22;94611.63;;;24.67;54.15
40205;BME280;26963;42.666;23.366;2023-07-31T03:40:47;94609.28;;;24.65;53.74
40205;BME280;26963;42.666;23.366;2023-07-31T03:43:13;94618.66;;;24.68;53.76
40205;BME280;26963;42.666;23.366;2023-07-31T03:45:39;94617.09;;;24.74;53.94
40205;BME280;26963;42.666;23.366;2023-07-31T03:48:04;94574.09;;;24.49;53.96
40205;BME280;26963;42.666;23.366;2023-07-31T03:50:30;94621.00;;;24.77;53.92
40205;BME280;26963;42.666;23.366;2023-07-31T03:52:56;94614.38;;;24.74;53.72
40205;BME280;26963;42.666;23.366;2023-07-31T03:55:21;94572.50;;;24.48;53.53
40205;BME280;26963;42.666;23.366;2023-07-31T03:57:47;94617.88;;;24.78;53.56
40205;BME280;26963;42.666;23.366;2023-07-31T04:00:13;94640.53;;;24.93;53.00
40205;BME280;26963;42.666;23.366;2023-07-31T04:02:38;94620.22;;;24.90;52.98
40205;BME280;26963;42.666;23.366;2023-07-31T04:05:04;94636.63;;;25.01;52.79
40205;BME280;26963;42.666;23.366;2023-07-31T04:07:30;94632.31;;;25.04;52.73
40205;BME280;26963;42.666;23.366;2023-07-31T04:09:56;94629.19;;;25.02;52.63
40205;BME280;26963;42.666;23.366;2023-07-31T04:12:22;94631.13;;;25.05;52.66
40205;BME280;26963;42.666;23.366;2023-07-31T04:14:48;94599.09;;;24.84;52.68
40205;BME280;26963;42.666;23.366;2023-07-31T04:17:13;94638.94;;;25.10;52.35
40205;BME280;26963;42.666;23.366;2023-07-31T04:19:39;94646.38;;;25.10;52.29
40205;BME280;26963;42.666;23.366;2023-07-31T04:22:05;94632.31;;;25.04;52.32
40205;BME280;26963;42.666;23.366;2023-07-31T04:24:31;94648.31;;;25.09;52.32
40205;BME280;26963;42.666;23.366;2023-07-31T04:26:56;94647.94;;;25.14;52.69
40205;BME280;26963;42.666;23.366;2023-07-31T04:29:22;94599.09;;;24.84;52.79
40205;BME280;26963;42.666;23.366;2023-07-31T04:31:48;94639.72;;;25.18;52.45
40205;BME280;26963;42.666;23.366;2023-07-31T04:34:14;94647.94;;;25.18;52.51
40205;BME280;26963;42.666;23.366;2023-07-31T04:36:39;94647.56;;;25.16;52.66
40205;BME280;26963;42.666;23.366;2023-07-31T04:39:05;94641.28;;;25.08;52.33
40205;BME280;26963;42.666;23.366;2023-07-31T04:41:30;94649.91;;;25.17;52.33
40205;BME280;26963;42.666;23.366;2023-07-31T04:43:56;94640.53;;;25.11;52.48
40205;BME280;26963;42.666;23.366;2023-07-31T04:46:21;94642.06;;;25.19;51.89
40205;BME280;26963;42.666;23.366;2023-07-31T04:48:47;94645.97;;;25.29;52.07
40205;BME280;26963;42.666;23.366;2023-07-31T04:51:13;94640.88;;;25.20;51.63
40205;BME280;26963;42.666;23.366;2023-07-31T04:53:38;94641.28;;;25.22;52.04
40205;BME280;26963;42.666;23.366;2023-07-31T04:56:04;94614.72;;;24.98;51.96
40205;BME280;26963;42.666;23.366;2023-07-31T04:58:29;94640.47;;;25.26;51.53
40205;BME280;26963;42.666;23.366;2023-07-31T05:00:55;94646.72;;;25.51;51.25
40205;BME280;26963;42.666;23.366;2023-07-31T05:03:21;94647.47;;;25.63;50.46
40205;BME280;26963;42.666;23.366;2023-07-31T05:05:46;94587.25;;;25.41;50.25
40205;BME280;26963;42.666;23.366;2023-07-31T05:08:11;94642.69;;;25.85;49.83
40205;BME280;26963;42.666;23.366;2023-07-31T05:10:37;94626.97;;;25.93;49.89
40205;BME280;26963;42.666;23.366;2023-07-31T05:13:03;94617.56;;;25.97;49.35
40205;BME280;26963;42.666;23.366;2023-07-31T05:15:28;94642.97;;;26.12;48.85
40205;BME280;26963;42.666;23.366;2023-07-31T05:17:54;94624.56;;;26.09;49.06
40205;BME280;26963;42.666;23.366;2023-07-31T05:20:20;94637.06;;;26.17;48.69
40205;BME280;26963;42.666;23.366;2023-07-31T05:22:46;94632.72;;;26.24;48.65
40205;BME280;26963;42.666;23.366;2023-07-31T05:25:11;94547.22;;;25.72;48.17
40205;BME280;26963;42.666;23.366;2023-07-31T05:27:37;94627.25;;;26.24;48.56
40205;BME280;26963;42.666;23.366;2023-07-31T05:30:03;94635.41;;;26.31;48.03
40205;BME280;26963;42.666;23.366;2023-07-31T05:32:28;94587.38;;;26.04;47.92
40205;BME280;26963;42.666;23.366;2023-07-31T05:34:54;94618.19;;;26.30;47.60
40205;BME280;26963;42.666;23.366;2023-07-31T05:37:19;94628.41;;;26.30;47.76
40205;BME280;26963;42.666;23.366;2023-07-31T05:39:45;94543.25;;;25.84;47.70
40205;BME280;26963;42.666;23.366;2023-07-31T05:42:11;94623.53;;;26.48;47.34
40205;BME280;26963;42.666;23.366;2023-07-31T05:44:36;94582.16;;;26.25;47.20
40205;BME280;26963;42.666;23.366;2023-07-31T05:47:02;94626.59;;;26.61;47.03
40205;BME280;26963;42.666;23.366;2023-07-31T05:49:27;94576.47;;;26.53;46.58
40205;BME280;26963;42.666;23.366;2023-07-31T05:51:53;94633.66;;;27.11;45.71
40205;BME280;26963;42.666;23.366;2023-07-31T05:54:18;94631.56;;;27.26;45.07
40205;BME280;26963;42.666;23.366;2023-07-31T05:56:44;94592.28;;;26.88;44.90
40205;BME280;26963;42.666;23.366;2023-07-31T05:59:12;94637.16;;;27.12;44.86
40205;BME280;26963;42.666;23.366;2023-07-31T06:01:37;94640.31;;;27.10;44.73
40205;BME280;26963;42.666;23.366;2023-07-31T06:04:03;94601.41;;;26.77;44.64
40205;BME280;26963;42.666;23.366;2023-07-31T06:06:29;94654.53;;;27.01;44.27
40205;BME280;26963;42.666;23.366;2023-07-31T06:08:54;94563.28;;;26.41;45.06
40205;BME280;26963;42.666;23.366;2023-07-31T06:11:21;94648.69;;;26.99;45.06
40205;BME280;26963;42.666;23.366;2023-07-31T06:13:47;94606.84;;;26.84;44.58
40205;BME280;26963;42.666;23.366;2023-07-31T06:16:14;94654.75;;;27.22;43.76
40205;BME280;26963;42.666;23.366;2023-07-31T06:18:41;94607.97;;;26.91;43.08
40205;BME280;26963;42.666;23.366;2023-07-31T06:21:07;94652.81;;;27.18;43.05
40205;BME280;26963;42.666;23.366;2023-07-31T06:23:33;94637.19;;;27.08;42.99
40205;BME280;26963;42.666;23.366;2023-07-31T06:25:59;94642.69;;;27.08;42.74
40205;BME280;26963;42.666;23.366;2023-07-31T06:28:28;94649.69;;;27.16;42.73
40205;BME280;26963;42.666;23.366;2023-07-31T06:30:54;94641.66;;;27.40;42.15
40205;BME280;26963;42.666;23.366;2023-07-31T06:33:20;94643.72;;;27.67;41.93
40205;BME280;26963;42.666;23.366;2023-07-31T06:35:45;94636.50;;;30.21;36.96
40205;BME280;26963;42.666;23.366;2023-07-31T06:38:11;94638.97;;;30.16;36.20
40205;BME280;26963;42.666;23.366;2023-07-31T06:40:37;94626.03;;;29.52;36.99
40205;BME280;26963;42.666;23.366;2023-07-31T06:43:02;94614.69;;;29.26;37.00
40205;BME280;26963;42.666;23.366;2023-07-31T06:45:36;94643.09;;;32.57;32.44
40205;BME280;26963;42.666;23.366;2023-07-31T06:48:03;94642.13;;;34.89;28.28
40205;BME280;26963;42.666;23.366;2023-07-31T06:50:30;94622.41;;;36.36;26.03
40205;BME280;26963;42.666;23.366;2023-07-31T06:52:55;94639.28;;;37.33;25.03
40205;BME280;26963;42.666;23.366;2023-07-31T06:55:21;94648.13;;;35.47;26.96
40205;BME280;26963;42.666;23.366;2023-07-31T06:57:48;94653.09;;;35.52;26.39
40205;BME280;26963;42.666;23.366;2023-07-31T07:00:15;94654.56;;;37.62;24.18
40205;BME280;26963;42.666;23.366;2023-07-31T07:02:41;94655.22;;;38.71;22.67
40205;BME280;26963;42.666;23.366;2023-07-31T07:05:07;94649.69;;;39.27;22.12
40205;BME280;26963;42.666;23.366;2023-07-31T07:07:34;94631.50;;;40.57;20.02
40205;BME280;26963;42.666;23.366;2023-07-31T07:10:00;94640.50;;;41.54;19.26
40205;BME280;26963;42.666;23.366;2023-07-31T07:12:29;94643.81;;;42.35;18.23
40205;BME280;26963;42.666;23.366;2023-07-31T07:14:55;94631.03;;;42.68;17.41
40205;BME280;26963;42.666;23.366;2023-07-31T07:17:20;94604.88;;;43.08;17.11
40205;BME280;26963;42.666;23.366;2023-07-31T07:19:48;94601.34;;;43.60;16.94
40205;BME280;26963;42.666;23.366;2023-07-31T07:22:14;94641.22;;;44.23;16.04
40205;BME280;26963;42.666;23.366;2023-07-31T07:24:39;94641.38;;;44.42;15.90
40205;BME280;26963;42.666;23.366;2023-07-31T07:27:05;94607.91;;;44.58;15.53
40205;BME280;26963;42.666;23.366;2023-07-31T07:29:31;94651.91;;;44.42;15.77
40205;BME280;26963;42.666;23.366;2023-07-31T07:31:56;94624.56;;;44.25;15.26
40205;BME280;26963;42.666;23.366;2023-07-31T07:34:24;94645.25;;;41.91;17.57
40205;BME280;26963;42.666;23.366;2023-07-31T07:36:49;94647.19;;;39.91;19.91
40205;BME280;26963;42.666;23.366;2023-07-31T07:39:15;94646.22;;;39.73;19.77
40205;BME280;26963;42.666;23.366;2023-07-31T07:41:40;94647.53;;;41.32;18.66
40205;BME280;26963;42.666;23.366;2023-07-31T07:44:07;94630.13;;;41.77;18.10
40205;BME280;26963;42.666;23.366;2023-07-31T07:46:32;94653.19;;;42.10;18.13
40205;BME280;26963;42.666;23.366;2023-07-31T07:48:58;94615.41;;;42.90;17.04
40205;BME280;26963;42.666;23.366;2023-07-31T07:51:23;94647.84;;;42.23;17.40
40205;BME280;26963;42.666;23.366;2023-07-31T07:53:49;94658.69;;;40.51;19.32
40205;BME280;26963;42.666;23.366;2023-07-31T07:56:14;94665.47;;;39.66;20.06
40205;BME280;26963;42.666;23.366;2023-07-31T07:58:40;94663.50;;;39.15;20.90
40205;BME280;26963;42.666;23.366;2023-07-31T08:01:05;94666.09;;;39.34;20.50
40205;BME280;26963;42.666;23.366;2023-07-31T08:03:31;94666.50;;;39.89;19.93
40205;BME280;26963;42.666;23.366;2023-07-31T08:06:00;94651.34;;;40.01;19.38
40205;BME280;26963;42.666;23.366;2023-07-31T08:08:28;94656.28;;;39.65;20.11
40205;BME280;26963;42.666;23.366;2023-07-31T08:10:54;94626.00;;;40.10;18.96
40205;BME280;26963;42.666;23.366;2023-07-31T08:13:20;94658.03;;;41.92;18.02
40205;BME280;26963;42.666;23.366;2023-07-31T08:15:45;94625.34;;;43.02;16.81
40205;BME280;26963;42.666;23.366;2023-07-31T08:18:11;94649.59;;;41.37;18.03
40205;BME280;26963;42.666;23.366;2023-07-31T08:20:37;94666.06;;;41.13;18.24
40205;BME280;26963;42.666;23.366;2023-07-31T08:23:03;94654.47;;;41.97;17.82
40205;BME280;26963;42.666;23.366;2023-07-31T08:25:29;94654.53;;;42.43;16.91
40205;BME280;26963;42.666;23.366;2023-07-31T08:27:54;94654.50;;;43.11;16.56
40205;BME280;26963;42.666;23.366;2023-07-31T08:30:21;94652.59;;;41.83;17.73
40205;BME280;26963;42.666;23.366;2023-07-31T08:32:46;94644.81;;;42.49;17.09
40205;BME280;26963;42.666;23.366;2023-07-31T08:35:12;94639.03;;;43.57;16.48
40205;BME280;26963;42.666;23.366;2023-07-31T08:37:38;94653.44;;;44.43;15.67
40205;BME280;26963;42.666;23.366;2023-07-31T08:40:04;94615.53;;;44.33;15.53
40205;BME280;26963;42.666;23.366;2023-07-31T08:42:30;94662.28;;;45.19;14.58
40205;BME280;26963;42.666;23.366;2023-07-31T08:44:56;94644.03;;;45.64;14.64
40205;BME280;26963;42.666;23.366;2023-07-31T08:47:23;94657.44;;;46.02;13.98
40205;BME280;26963;42.666;23.366;2023-07-31T08:49:51;94626.06;;;46.19;13.83
40205;BME280;26963;42.666;23.366;2023-07-31T08:52:18;94642.31;;;46.70;13.39
40205;BME280;26963;42.666;23.366;2023-07-31T08:54:43;94612.94;;;46.86;12.86
40205;BME280;26963;42.666;23.366;2023-07-31T08:57:09;94641.28;;;46.35;13.51
40205;BME280;26963;42.666;23.366;2023-07-31T08:59:35;94618.09;;;43.36;15.32
40205;BME280;26963;42.666;23.366;2023-07-31T09:02:08;94648.69;;;44.21;15.32
40205;BME280;26963;42.666;23.366;2023-07-31T09:04:34;94651.69;;;43.92;15.32
40205;BME280;26963;42.666;23.366;2023-07-31T09:07:01;94598.00;;;42.92;16.00
40205;BME280;26963;42.666;23.366;2023-07-31T09:09:29;94635.34;;;43.74;15.76
40205;BME280;26963;42.666;23.366;2023-07-31T09:11:54;94639.19;;;44.60;14.72
40205;BME280;26963;42.666;23.366;2023-07-31T09:14:20;94643.59;;;45.10;14.44
40205;BME280;26963;42.666;23.366;2023-07-31T09:16:54;94588.72;;;45.06;14.47
40205;BME280;26963;42.666;23.366;2023-07-31T09:19:33;94640.22;;;45.12;13.98
40205;BME280;26963;42.666;23.366;2023-07-31T09:22:00;94639.22;;;44.54;14.95
40205;BME280;26963;42.666;23.366;2023-07-31T09:24:30;94598.09;;;43.45;15.32
40205;BME280;26963;42.666;23.366;2023-07-31T09:26:57;94634.84;;;42.77;16.37
40205;BME280;26963;42.666;23.366;2023-07-31T09:29:24;94630.34;;;41.73;17.35
40205;BME280;26963;42.666;23.366;2023-07-31T09:31:52;94619.31;;;40.98;18.04
40205;BME280;26963;42.666;23.366;2023-07-31T09:34:18;94635.13;;;40.37;18.96
40205;BME280;26963;42.666;23.366;2023-07-31T09:36:48;94626.13;;;40.01;18.46
40205;BME280;26963;42.666;23.366;2023-07-31T09:39:15;94617.19;;;39.50;19.46
40205;BME280;26963;42.666;23.366;2023-07-31T09:41:48;94627.66;;;38.78;20.43
40205;BME280;26963;42.666;23.366;2023-07-31T09:44:18;94601.22;;;37.84;21.15
40205;BME280;26963;42.666;23.366;2023-07-31T09:46:44;94621.25;;;37.58;21.89
40205;BME280;26963;42.666;23.366;2023-07-31T09:49:11;94600.94;;;37.18;21.87
40205;BME280;26963;42.666;23.366;2023-07-31T09:51:37;94539.41;;;36.40;22.12
40205;BME280;26963;42.666;23.366;2023-07-31T09:56:48;94603.66;;;36.36;22.88
40205;BME280;26963;42.666;23.366;2023-07-31T09:59:17;94612.28;;;36.48;22.76
40205;BME280;26963;42.666;23.366;2023-07-31T10:01:44;94565.31;;;36.22;22.87
40205;BME280;26963;42.666;23.366;2023-07-31T10:04:12;94590.94;;;36.35;22.12
40205;BME280;26963;42.666;23.366;2023-07-31T10:06:39;94580.72;;;35.89;22.59
40205;BME280;26963;42.666;23.366;2023-07-31T10:09:08;94605.63;;;35.65;23.08
40205;BME280;26963;42.666;23.366;2023-07-31T10:11:38;94608.69;;;35.67;22.89
40205;BME280;26963;42.666;23.366;2023-07-31T10:14:07;94515.53;;;34.98;23.18
40205;BME280;26963;42.666;23.366;2023-07-31T10:16:34;94614.75;;;35.38;23.27
40205;BME280;26963;42.666;23.366;2023-07-31T10:19:01;94601.72;;;35.07;23.49
40205;BME280;26963;42.666;23.366;2023-07-31T10:21:27;94613.44;;;35.02;23.49
40205;BME280;26963;42.666;23.366;2023-07-31T10:23:53;94601.63;;;34.79;23.79
40205;BME280;26963;42.666;23.366;2023-07-31T10:26:23;94606.53;;;34.66;24.12
40205;BME280;26963;42.666;23.366;2023-07-31T10:28:50;94594.09;;;34.39;24.37
40205;BME280;26963;42.666;23.366;2023-07-31T10:31:17;94591.13;;;34.33;24.73
40205;BME280;26963;42.666;23.366;2023-07-31T10:33:44;94609.56;;;34.49;24.87
40205;BME280;26963;42.666;23.366;2023-07-31T10:36:18;94588.06;;;34.40;24.41
40205;BME280;26963;42.666;23.366;2023-07-31T10:38:43;94583.19;;;34.22;24.38
40205;BME280;26963;42.666;23.366;2023-07-31T10:41:09;94612.63;;;34.42;24.43
40205;BME280;26963;42.666;23.366;2023-07-31T10:43:39;94585.44;;;34.37;24.48
40205;BME280;26963;42.666;23.366;2023-07-31T10:46:14;94591.88;;;34.65;23.74
40205;BME280;26963;42.666;23.366;2023-07-31T10:48:41;94534.31;;;34.25;23.82
40205;BME280;26963;42.666;23.366;2023-07-31T10:51:08;94593.53;;;34.53;23.87
40205;BME280;26963;42.666;23.366;2023-07-31T10:53:36;94528.00;;;34.24;24.57
40205;BME280;26963;42.666;23.366;2023-07-31T10:56:06;94568.25;;;34.60;24.39
40205;BME280;26963;42.666;23.366;2023-07-31T10:58:33;94557.78;;;34.74;23.45
40205;BME280;26963;42.666;23.366;2023-07-31T11:01:01;94566.13;;;34.83;23.60
40205;BME280;26963;42.666;23.366;2023-07-31T11:03:47;94573.53;;;34.77;23.49
40205;BME280;26963;42.666;23.366;2023-07-31T11:06:14;94575.97;;;34.66;24.08
40205;BME280;26963;42.666;23.366;2023-07-31T11:08:48;94566.66;;;34.50;24.46
40205;BME280;26963;42.666;23.366;2023-07-31T11:11:18;94528.53;;;34.10;23.91
40205;BME280;26963;42.666;23.366;2023-07-31T11:13:49;94555.28;;;34.17;24.95
40205;BME280;26963;42.666;23.366;2023-07-31T11:16:16;94564.97;;;34.12;24.58
40205;BME280;26963;42.666;23.366;2023-07-31T11:18:46;94572.19;;;34.09;24.66
40205;BME280;26963;42.666;23.366;2023-07-31T11:21:16;94563.66;;;34.04;24.16
40205;BME280;26963;42.666;23.366;2023-07-31T11:23:46;94568.59;;;34.00;24.70
40205;BME280;26963;42.666;23.366;2023-07-31T11:26:12;94562.50;;;34.14;24.59
40205;BME280;26963;42.666;23.366;2023-07-31T11:28:38;94552.78;;;34.19;23.71
40205;BME280;26963;42.666;23.366;2023-07-31T11:31:04;94507.00;;;33.60;23.79
40205;BME280;26963;42.666;23.366;2023-07-31T11:33:30;94560.59;;;34.02;23.71
40205;BME280;26963;42.666;23.366;2023-07-31T11:35:56;94565.34;;;34.01;23.79
40205;BME280;26963;42.666;23.366;2023-07-31T11:38:24;94562.41;;;33.95;23.94
40205;BME280;26963;42.666;23.366;2023-07-31T11:40:51;94557.75;;;33.92;23.78
40205;BME280;26963;42.666;23.366;2023-07-31T11:43:18;94560.88;;;33.72;23.50
40205;BME280;26963;42.666;23.366;2023-07-31T11:45:57;94549.13;;;33.46;24.16
40205;BME280;26963;42.666;23.366;2023-07-31T11:48:25;94501.56;;;33.12;24.81
40205;BME280;26963;42.666;23.366;2023-07-31T11:50:58;94551.09;;;33.58;24.66
40205;BME280;26963;42.666;23.366;2023-07-31T11:56:01;94509.13;;;33.12;25.01
40205;BME280;26963;42.666;23.366;2023-07-31T11:58:31;94534.31;;;33.05;25.02
40205;BME280;26963;42.666;23.366;2023-07-31T12:00:58;94497.53;;;32.56;25.60
40205;BME280;26963;42.666;23.366;2023-07-31T12:03:24;94549.34;;;32.68;26.03
40205;BME280;26963;42.666;23.366;2023-07-31T12:05:49;94556.13;;;32.67;26.38
40205;BME280;26963;42.666;23.366;2023-07-31T12:08:15;94516.00;;;32.59;26.56
40205;BME280;26963;42.666;23.366;2023-07-31T12:10:41;94534.47;;;32.88;25.70
40205;BME280;26963;42.666;23.366;2023-07-31T12:13:12;94525.69;;;33.03;25.39
40205;BME280;26963;42.666;23.366;2023-07-31T12:15:45;94493.00;;;32.97;25.02
40205;BME280;26963;42.666;23.366;2023-07-31T12:18:21;94542.97;;;33.42;25.00
40205;BME280;26963;42.666;23.366;2023-07-31T12:20:49;94527.78;;;33.33;25.02
40205;BME280;26963;42.666;23.366;2023-07-31T12:23:19;94522.47;;;33.26;25.04
40205;BME280;26963;42.666;23.366;2023-07-31T12:26:03;94507.19;;;32.99;25.53
40205;BME280;26963;42.666;23.366;2023-07-31T12:28:29;94477.44;;;32.78;25.47
40205;BME280;26963;42.666;23.366;2023-07-31T12:31:00;94523.81;;;32.99;25.42
40205;BME280;26963;42.666;23.366;2023-07-31T12:33:31;94485.88;;;32.74;25.37
40205;BME280;26963;42.666;23.366;2023-07-31T12:36:00;94387.81;;;32.01;25.92
40205;BME280;26963;42.666;23.366;2023-07-31T12:38:25;94516.31;;;32.87;25.71
40205;BME280;26963;42.666;23.366;2023-07-31T12:40:51;94505.28;;;32.61;26.49
40205;BME280;26963;42.666;23.366;2023-07-31T12:43:17;94439.69;;;32.10;26.33
40205;BME280;26963;42.666;23.366;2023-07-31T12:45:42;94499.53;;;32.43;26.51
40205;BME280;26963;42.666;23.366;2023-07-31T12:48:08;94529.88;;;32.59;26.31
40205;BME280;26963;42.666;23.366;2023-07-31T12:50:33;94511.50;;;32.52;26.05
40205;BME280;26963;42.666;23.366;2023-07-31T12:53:02;94507.28;;;32.48;26.21
40205;BME280;26963;42.666;23.366;2023-07-31T12:55:28;94503.66;;;32.38;26.98